sensor_id;sensor_type;location;lat;lon;timestamp;P1;durP1;ratioP1;P2;durP2;ratioP2
38089;SDS011;23904;52.322;10.232;2022-10-31T00:02:25;15.65;;;6.57;;
38089;SDS011;23904;52.322;10.232;2022-10-31T00:04:50;16.58;;;6.97;;
38089;SDS011;23904;52.322;10.232;2022-10-31T00:07:16;10.57;;;7.05;;
38089;SDS011;23904;52.322;10.232;2022-10-31T00:09:42;12.95;;;6.80;;
38089;SDS011;23904;52.322;10.232;2022-10-31T00:12:07;13.93;;;6.55;;
38089;SDS011;23904;52.322;10.232;2022-10-31T00:14:33;15.98;;;5.93;;
38089;SDS011;23904;52.322;10.232;2022-10-31T00:16:58;19.10;;;6.72;;
38089;SDS011;23904;52.322;10.232;2022-10-31T00:19:24;22.20;;;7.30;;
38089;SDS011;23904;52.322;10.232;2022-10-31T00:21:51;19.50;;;7.32;;
38089;SDS011;23904;52.322;10.232;2022-10-31T00:24:17;17.08;;;6.80;;
38089;SDS011;23904;52.322;10.232;2022-10-31T00:26:43;21.60;;;6.60;;
38089;SDS011;23904;52.322;10.232;2022-10-31T00:29:09;22.15;;;7.45;;
38089;SDS011;23904;52.322;10.232;2022-10-31T00:31:35;14.93;;;6.90;;
38089;SDS011;23904;52.322;10.232;2022-10-31T00:34:01;15.93;;;7.20;;
38089;SDS011;23904;52.322;10.232;2022-10-31T00:36:28;11.88;;;6.65;;
38089;SDS011;23904;52.322;10.232;2022-10-31T00:38:53;18.73;;;6.95;;
38089;SDS011;23904;52.322;10.232;2022-10-31T00:41:19;16.13;;;7.80;;
38089;SDS011;23904;52.322;10.232;2022-10-31T00:43:45;18.58;;;7.40;;
38089;SDS011;23904;52.322;10.232;2022-10-31T00:46:11;11.30;;;6.15;;
38089;SDS011;23904;52.322;10.232;2022-10-31T00:48:37;12.23;;;6.63;;
38089;SDS011;23904;52.322;10.232;2022-10-31T00:51:03;15.13;;;6.78;;
38089;SDS011;23904;52.322;10.232;2022-10-31T00:53:29;12.88;;;7.18;;
38089;SDS011;23904;52.322;10.232;2022-10-31T00:55:55;15.63;;;6.95;;
38089;SDS011;23904;52.322;10.232;2022-10-31T00:58:20;15.18;;;7.00;;
38089;SDS011;23904;52.322;10.232;2022-10-31T01:00:47;21.35;;;8.20;;
38089;SDS011;23904;52.322;10.232;2022-10-31T01:03:20;17.23;;;7.72;;
38089;SDS011;23904;52.322;10.232;2022-10-31T01:06:22;20.73;;;7.18;;
38089;SDS011;23904;52.322;10.232;2022-10-31T01:08:41;15.88;;;6.32;;
38089;SDS011;23904;52.322;10.232;2022-10-31T01:11:18;14.57;;;6.60;;
38089;SDS011;23904;52.322;10.232;2022-10-31T01:13:46;14.82;;;6.68;;
38089;SDS011;23904;52.322;10.232;2022-10-31T01:16:17;15.27;;;7.47;;
38089;SDS011;23904;52.322;10.232;2022-10-31T01:18:48;16.45;;;7.35;;
38089;SDS011;23904;52.322;10.232;2022-10-31T01:21:16;18.40;;;7.90;;
38089;SDS011;23904;52.322;10.232;2022-10-31T01:23:45;17.80;;;7.53;;
38089;SDS011;23904;52.322;10.232;2022-10-31T01:26:12;18.90;;;8.20;;
38089;SDS011;23904;52.322;10.232;2022-10-31T01:28:44;17.27;;;8.13;;
38089;SDS011;23904;52.322;10.232;2022-10-31T01:31:14;17.48;;;9.13;;
38089;SDS011;23904;52.322;10.232;2022-10-31T01:33:42;19.00;;;8.73;;
38089;SDS011;23904;52.322;10.232;2022-10-31T01:36:16;22.75;;;9.07;;
38089;SDS011;23904;52.322;10.232;2022-10-31T01:38:44;18.88;;;9.18;;
38089;SDS011;23904;52.322;10.232;2022-10-31T01:41:12;20.40;;;9.00;;
38089;SDS011;23904;52.322;10.232;2022-10-31T01:43:44;18.40;;;9.07;;
38089;SDS011;23904;52.322;10.232;2022-10-31T01:46:18;21.13;;;9.45;;
38089;SDS011;23904;52.322;10.232;2022-10-31T01:48:47;19.98;;;9.73;;
38089;SDS011;23904;52.322;10.232;2022-10-31T01:51:14;22.08;;;8.82;;
38089;SDS011;23904;52.322;10.232;2022-10-31T01:53:41;20.73;;;9.88;;
38089;SDS011;23904;52.322;10.232;2022-10-31T01:56:08;24.08;;;9.90;;
38089;SDS011;23904;52.322;10.232;2022-10-31T01:58:34;21.80;;;9.98;;
38089;SDS011;23904;52.322;10.232;2022-10-31T02:01:00;21.73;;;10.40;;
38089;SDS011;23904;52.322;10.232;2022-10-31T02:03:27;19.65;;;9.48;;
38089;SDS011;23904;52.322;10.232;2022-10-31T02:05:54;19.23;;;9.45;;
38089;SDS011;23904;52.322;10.232;2022-10-31T02:08:23;22.90;;;9.43;;
38089;SDS011;23904;52.322;10.232;2022-10-31T02:10:58;19.58;;;8.82;;
38089;SDS011;23904;52.322;10.232;2022-10-31T02:13:26;18.98;;;9.57;;
38089;SDS011;23904;52.322;10.232;2022-10-31T02:15:55;20.80;;;9.27;;
38089;SDS011;23904;52.322;10.232;2022-10-31T02:18:24;21.58;;;9.35;;
38089;SDS011;23904;52.322;10.232;2022-10-31T02:24:22;20.85;;;9.70;;
38089;SDS011;23904;52.322;10.232;2022-10-31T02:30:10;26.02;;;10.13;;
38089;SDS011;23904;52.322;10.232;2022-10-31T02:32:54;17.65;;;9.68;;
38089;SDS011;23904;52.322;10.232;2022-10-31T02:35:42;14.80;;;9.75;;
38089;SDS011;23904;52.322;10.232;2022-10-31T02:47:06;23.92;;;11.65;;
38089;SDS011;23904;52.322;10.232;2022-10-31T02:52:26;20.63;;;12.48;;
38089;SDS011;23904;52.322;10.232;2022-10-31T02:54:54;27.10;;;14.65;;
38089;SDS011;23904;52.322;10.232;2022-10-31T02:57:21;33.22;;;13.73;;
38089;SDS011;23904;52.322;10.232;2022-10-31T02:59:54;26.05;;;14.23;;
38089;SDS011;23904;52.322;10.232;2022-10-31T03:02:33;23.17;;;13.48;;
38089;SDS011;23904;52.322;10.232;2022-10-31T03:10:35;33.03;;;16.67;;
38089;SDS011;23904;52.322;10.232;2022-10-31T03:22:04;28.77;;;16.08;;
38089;SDS011;23904;52.322;10.232;2022-10-31T03:27:09;32.58;;;14.88;;
38089;SDS011;23904;52.322;10.232;2022-10-31T03:29:38;27.70;;;14.88;;
38089;SDS011;23904;52.322;10.232;2022-10-31T03:32:17;28.23;;;16.13;;
38089;SDS011;23904;52.322;10.232;2022-10-31T03:37:20;27.63;;;16.25;;
38089;SDS011;23904;52.322;10.232;2022-10-31T03:39:47;32.70;;;16.67;;
38089;SDS011;23904;52.322;10.232;2022-10-31T03:42:15;30.52;;;16.17;;
38089;SDS011;23904;52.322;10.232;2022-10-31T03:44:52;31.05;;;18.75;;
38089;SDS011;23904;52.322;10.232;2022-10-31T03:47:38;28.83;;;18.15;;
38089;SDS011;23904;52.322;10.232;2022-10-31T03:50:06;33.42;;;18.05;;
38089;SDS011;23904;52.322;10.232;2022-10-31T03:58:08;31.35;;;16.63;;
38089;SDS011;23904;52.322;10.232;2022-10-31T04:00:52;35.47;;;19.25;;
38089;SDS011;23904;52.322;10.232;2022-10-31T04:03:22;38.10;;;20.15;;
38089;SDS011;23904;52.322;10.232;2022-10-31T04:05:53;36.03;;;20.77;;
38089;SDS011;23904;52.322;10.232;2022-10-31T04:08:23;38.70;;;22.08;;
38089;SDS011;23904;52.322;10.232;2022-10-31T04:10:53;33.53;;;18.02;;
38089;SDS011;23904;52.322;10.232;2022-10-31T04:13:22;38.67;;;20.25;;
38089;SDS011;23904;52.322;10.232;2022-10-31T04:15:53;41.45;;;20.83;;
38089;SDS011;23904;52.322;10.232;2022-10-31T04:18:22;43.60;;;20.77;;
38089;SDS011;23904;52.322;10.232;2022-10-31T04:20:48;48.08;;;22.33;;
38089;SDS011;23904;52.322;10.232;2022-10-31T04:23:19;36.35;;;20.95;;
38089;SDS011;23904;52.322;10.232;2022-10-31T04:25:48;42.15;;;21.35;;
38089;SDS011;23904;52.322;10.232;2022-10-31T04:28:13;38.72;;;21.73;;
38089;SDS011;23904;52.322;10.232;2022-10-31T04:30:39;40.15;;;21.65;;
38089;SDS011;23904;52.322;10.232;2022-10-31T04:33:05;48.20;;;22.13;;
38089;SDS011;23904;52.322;10.232;2022-10-31T04:35:30;40.55;;;22.55;;
38089;SDS011;23904;52.322;10.232;2022-10-31T04:37:56;45.72;;;22.95;;
38089;SDS011;23904;52.322;10.232;2022-10-31T04:40:22;45.65;;;22.25;;
38089;SDS011;23904;52.322;10.232;2022-10-31T04:42:47;48.70;;;22.63;;
38089;SDS011;23904;52.322;10.232;2022-10-31T04:45:13;42.35;;;22.30;;
38089;SDS011;23904;52.322;10.232;2022-10-31T04:47:39;48.08;;;24.80;;
38089;SDS011;23904;52.322;10.232;2022-10-31T04:50:04;45.95;;;23.10;;
38089;SDS011;23904;52.322;10.232;2022-10-31T04:52:30;45.92;;;21.50;;
38089;SDS011;23904;52.322;10.232;2022-10-31T04:54:56;46.67;;;24.02;;
38089;SDS011;23904;52.322;10.232;2022-10-31T04:57:21;41.70;;;23.13;;
38089;SDS011;23904;52.322;10.232;2022-10-31T04:59:47;43.05;;;22.60;;
38089;SDS011;23904;52.322;10.232;2022-10-31T05:02:13;41.97;;;23.30;;
38089;SDS011;23904;52.322;10.232;2022-10-31T05:04:38;41.03;;;22.60;;
38089;SDS011;23904;52.322;10.232;2022-10-31T05:07:04;46.17;;;22.30;;
38089;SDS011;23904;52.322;10.232;2022-10-31T05:09:30;38.90;;;21.55;;
38089;SDS011;23904;52.322;10.232;2022-10-31T05:11:55;36.95;;;22.95;;
38089;SDS011;23904;52.322;10.232;2022-10-31T05:14:21;41.95;;;24.02;;
38089;SDS011;23904;52.322;10.232;2022-10-31T05:16:47;49.05;;;22.65;;
38089;SDS011;23904;52.322;10.232;2022-10-31T05:19:12;42.72;;;23.88;;
38089;SDS011;23904;52.322;10.232;2022-10-31T05:21:38;40.33;;;21.55;;
38089;SDS011;23904;52.322;10.232;2022-10-31T05:24:03;38.15;;;22.67;;
38089;SDS011;23904;52.322;10.232;2022-10-31T05:26:29;41.83;;;21.45;;
38089;SDS011;23904;52.322;10.232;2022-10-31T05:28:55;48.55;;;24.70;;
38089;SDS011;23904;52.322;10.232;2022-10-31T05:31:20;42.05;;;22.50;;
38089;SDS011;23904;52.322;10.232;2022-10-31T05:33:46;39.28;;;22.25;;
38089;SDS011;23904;52.322;10.232;2022-10-31T05:36:12;47.33;;;22.60;;
38089;SDS011;23904;52.322;10.232;2022-10-31T05:38:37;38.42;;;22.15;;
38089;SDS011;23904;52.322;10.232;2022-10-31T05:41:03;41.42;;;22.35;;
38089;SDS011;23904;52.322;10.232;2022-10-31T05:43:29;39.20;;;22.92;;
38089;SDS011;23904;52.322;10.232;2022-10-31T05:45:55;42.45;;;22.02;;
38089;SDS011;23904;52.322;10.232;2022-10-31T05:48:21;46.22;;;23.83;;
38089;SDS011;23904;52.322;10.232;2022-10-31T05:50:47;44.17;;;22.50;;
38089;SDS011;23904;52.322;10.232;2022-10-31T05:53:13;40.10;;;22.23;;
38089;SDS011;23904;52.322;10.232;2022-10-31T05:55:40;43.58;;;21.63;;
38089;SDS011;23904;52.322;10.232;2022-10-31T05:58:07;36.85;;;21.98;;
38089;SDS011;23904;52.322;10.232;2022-10-31T06:00:34;43.00;;;23.65;;
38089;SDS011;23904;52.322;10.232;2022-10-31T06:03:01;42.80;;;24.58;;
38089;SDS011;23904;52.322;10.232;2022-10-31T06:05:32;40.75;;;23.23;;
38089;SDS011;23904;52.322;10.232;2022-10-31T06:07:58;46.70;;;25.08;;
38089;SDS011;23904;52.322;10.232;2022-10-31T06:10:24;42.47;;;24.38;;
38089;SDS011;23904;52.322;10.232;2022-10-31T06:12:50;40.05;;;22.92;;
38089;SDS011;23904;52.322;10.232;2022-10-31T06:15:16;44.03;;;23.02;;
38089;SDS011;23904;52.322;10.232;2022-10-31T06:17:42;45.80;;;22.38;;
38089;SDS011;23904;52.322;10.232;2022-10-31T06:20:08;44.60;;;22.50;;
38089;SDS011;23904;52.322;10.232;2022-10-31T06:22:35;43.70;;;24.75;;
38089;SDS011;23904;52.322;10.232;2022-10-31T06:25:01;46.53;;;23.48;;
38089;SDS011;23904;52.322;10.232;2022-10-31T06:27:26;37.50;;;21.95;;
38089;SDS011;23904;52.322;10.232;2022-10-31T06:29:52;49.45;;;24.80;;
38089;SDS011;23904;52.322;10.232;2022-10-31T06:32:18;41.13;;;22.77;;
38089;SDS011;23904;52.322;10.232;2022-10-31T06:34:44;43.00;;;24.33;;
38089;SDS011;23904;52.322;10.232;2022-10-31T06:37:13;40.40;;;22.73;;
38089;SDS011;23904;52.322;10.232;2022-10-31T06:39:39;43.35;;;23.63;;
38089;SDS011;23904;52.322;10.232;2022-10-31T06:42:05;41.50;;;24.15;;
38089;SDS011;23904;52.322;10.232;2022-10-31T06:44:31;47.05;;;27.55;;
38089;SDS011;23904;52.322;10.232;2022-10-31T06:46:56;43.55;;;23.83;;
38089;SDS011;23904;52.322;10.232;2022-10-31T06:49:22;47.90;;;25.88;;
38089;SDS011;23904;52.322;10.232;2022-10-31T06:51:48;46.30;;;23.92;;
38089;SDS011;23904;52.322;10.232;2022-10-31T06:54:14;43.28;;;22.95;;
38089;SDS011;23904;52.322;10.232;2022-10-31T06:56:40;42.50;;;23.95;;
38089;SDS011;23904;52.322;10.232;2022-10-31T06:59:06;43.80;;;23.85;;
38089;SDS011;23904;52.322;10.232;2022-10-31T07:01:32;46.25;;;23.95;;
38089;SDS011;23904;52.322;10.232;2022-10-31T07:03:58;35.92;;;22.73;;
38089;SDS011;23904;52.322;10.232;2022-10-31T07:06:24;42.35;;;23.65;;
38089;SDS011;23904;52.322;10.232;2022-10-31T07:08:49;43.03;;;23.77;;
38089;SDS011;23904;52.322;10.232;2022-10-31T07:11:15;41.28;;;23.42;;
38089;SDS011;23904;52.322;10.232;2022-10-31T07:13:41;40.67;;;23.75;;
38089;SDS011;23904;52.322;10.232;2022-10-31T07:16:06;37.50;;;21.00;;
38089;SDS011;23904;52.322;10.232;2022-10-31T07:18:33;43.03;;;22.92;;
38089;SDS011;23904;52.322;10.232;2022-10-31T07:20:59;49.75;;;24.95;;
38089;SDS011;23904;52.322;10.232;2022-10-31T07:23:24;40.78;;;23.23;;
38089;SDS011;23904;52.322;10.232;2022-10-31T07:25:56;37.95;;;23.75;;
38089;SDS011;23904;52.322;10.232;2022-10-31T07:28:24;44.13;;;25.52;;
38089;SDS011;23904;52.322;10.232;2022-10-31T07:30:55;47.70;;;23.98;;
38089;SDS011;23904;52.322;10.232;2022-10-31T07:33:22;40.78;;;23.45;;
38089;SDS011;23904;52.322;10.232;2022-10-31T07:35:50;38.17;;;23.08;;
38089;SDS011;23904;52.322;10.232;2022-10-31T07:38:16;43.40;;;24.52;;
38089;SDS011;23904;52.322;10.232;2022-10-31T07:40:42;43.28;;;25.58;;
38089;SDS011;23904;52.322;10.232;2022-10-31T07:43:09;42.63;;;25.33;;
38089;SDS011;23904;52.322;10.232;2022-10-31T07:45:36;43.42;;;24.13;;
38089;SDS011;23904;52.322;10.232;2022-10-31T07:48:02;51.00;;;24.45;;
38089;SDS011;23904;52.322;10.232;2022-10-31T07:50:29;37.92;;;23.88;;
38089;SDS011;23904;52.322;10.232;2022-10-31T07:53:05;41.15;;;23.55;;
38089;SDS011;23904;52.322;10.232;2022-10-31T07:55:34;49.45;;;26.48;;
38089;SDS011;23904;52.322;10.232;2022-10-31T07:58:04;37.95;;;22.75;;
38089;SDS011;23904;52.322;10.232;2022-10-31T08:00:41;45.47;;;24.30;;
38089;SDS011;23904;52.322;10.232;2022-10-31T08:03:10;47.63;;;23.00;;
38089;SDS011;23904;52.322;10.232;2022-10-31T08:05:38;40.60;;;23.80;;
38089;SDS011;23904;52.322;10.232;2022-10-31T08:08:05;45.63;;;24.42;;
38089;SDS011;23904;52.322;10.232;2022-10-31T08:10:32;43.65;;;25.15;;
38089;SDS011;23904;52.322;10.232;2022-10-31T08:13:00;45.42;;;26.15;;
38089;SDS011;23904;52.322;10.232;2022-10-31T08:15:28;45.47;;;24.20;;
38089;SDS011;23904;52.322;10.232;2022-10-31T08:17:55;44.10;;;25.13;;
38089;SDS011;23904;52.322;10.232;2022-10-31T08:20:21;43.03;;;23.77;;
38089;SDS011;23904;52.322;10.232;2022-10-31T08:22:54;40.58;;;23.52;;
38089;SDS011;23904;52.322;10.232;2022-10-31T08:25:25;44.10;;;24.23;;
38089;SDS011;23904;52.322;10.232;2022-10-31T08:27:54;37.50;;;21.95;;
38089;SDS011;23904;52.322;10.232;2022-10-31T08:30:22;42.95;;;24.40;;
38089;SDS011;23904;52.322;10.232;2022-10-31T08:32:58;40.15;;;22.67;;
38089;SDS011;23904;52.322;10.232;2022-10-31T08:35:34;39.55;;;23.65;;
38089;SDS011;23904;52.322;10.232;2022-10-31T08:38:00;35.20;;;23.15;;
38089;SDS011;23904;52.322;10.232;2022-10-31T08:40:27;46.58;;;26.23;;
38089;SDS011;23904;52.322;10.232;2022-10-31T08:42:55;47.90;;;23.15;;
38089;SDS011;23904;52.322;10.232;2022-10-31T08:45:26;40.00;;;22.23;;
38089;SDS011;23904;52.322;10.232;2022-10-31T08:47:56;40.42;;;21.95;;
38089;SDS011;23904;52.322;10.232;2022-10-31T08:50:26;36.33;;;22.27;;
38089;SDS011;23904;52.322;10.232;2022-10-31T08:52:53;41.30;;;22.08;;
38089;SDS011;23904;52.322;10.232;2022-10-31T08:55:46;39.88;;;23.60;;
38089;SDS011;23904;52.322;10.232;2022-10-31T08:58:13;45.47;;;22.98;;
38089;SDS011;23904;52.322;10.232;2022-10-31T09:00:44;41.58;;;22.77;;
38089;SDS011;23904;52.322;10.232;2022-10-31T09:03:13;42.88;;;23.05;;
38089;SDS011;23904;52.322;10.232;2022-10-31T09:05:41;37.85;;;22.70;;
38089;SDS011;23904;52.322;10.232;2022-10-31T09:08:07;42.17;;;22.63;;
38089;SDS011;23904;52.322;10.232;2022-10-31T09:10:34;37.97;;;21.67;;
38089;SDS011;23904;52.322;10.232;2022-10-31T09:13:02;33.65;;;21.58;;
38089;SDS011;23904;52.322;10.232;2022-10-31T09:15:50;39.70;;;23.17;;
38089;SDS011;23904;52.322;10.232;2022-10-31T09:18:18;37.72;;;23.80;;
38089;SDS011;23904;52.322;10.232;2022-10-31T09:20:46;41.53;;;25.58;;
38089;SDS011;23904;52.322;10.232;2022-10-31T09:23:14;43.45;;;22.42;;
38089;SDS011;23904;52.322;10.232;2022-10-31T09:25:43;37.88;;;23.25;;
38089;SDS011;23904;52.322;10.232;2022-10-31T09:28:11;35.78;;;21.98;;
38089;SDS011;23904;52.322;10.232;2022-10-31T09:30:39;31.20;;;20.80;;
38089;SDS011;23904;52.322;10.232;2022-10-31T09:33:05;45.97;;;23.33;;
38089;SDS011;23904;52.322;10.232;2022-10-31T09:35:35;35.25;;;20.55;;
38089;SDS011;23904;52.322;10.232;2022-10-31T09:38:03;39.63;;;23.85;;
38089;SDS011;23904;52.322;10.232;2022-10-31T09:54:59;37.60;;;20.00;;
38089;SDS011;23904;52.322;10.232;2022-10-31T09:57:39;35.28;;;20.55;;
38089;SDS011;23904;52.322;10.232;2022-10-31T10:00:07;36.92;;;20.17;;
38089;SDS011;23904;52.322;10.232;2022-10-31T10:05:52;38.65;;;19.40;;
38089;SDS011;23904;52.322;10.232;2022-10-31T10:08:38;29.23;;;17.92;;
38089;SDS011;23904;52.322;10.232;2022-10-31T10:14:34;29.25;;;17.42;;
38089;SDS011;23904;52.322;10.232;2022-10-31T10:22:56;38.10;;;20.92;;
38089;SDS011;23904;52.322;10.232;2022-10-31T10:25:53;33.33;;;20.40;;
38089;SDS011;23904;52.322;10.232;2022-10-31T10:28:35;39.90;;;20.02;;
38089;SDS011;23904;52.322;10.232;2022-10-31T10:31:15;30.92;;;19.40;;
38089;SDS011;23904;52.322;10.232;2022-10-31T10:36:40;30.02;;;16.92;;
38089;SDS011;23904;52.322;10.232;2022-10-31T10:41:49;29.48;;;17.98;;
38089;SDS011;23904;52.322;10.232;2022-10-31T10:44:42;33.60;;;18.13;;
38089;SDS011;23904;52.322;10.232;2022-10-31T10:47:51;34.25;;;16.83;;
38089;SDS011;23904;52.322;10.232;2022-10-31T10:50:34;38.80;;;19.33;;
38089;SDS011;23904;52.322;10.232;2022-10-31T10:53:09;34.25;;;15.98;;
38089;SDS011;23904;52.322;10.232;2022-10-31T10:58:50;38.67;;;19.58;;
38089;SDS011;23904;52.322;10.232;2022-10-31T11:01:18;28.85;;;15.02;;
38089;SDS011;23904;52.322;10.232;2022-10-31T11:03:43;39.50;;;18.42;;
38089;SDS011;23904;52.322;10.232;2022-10-31T11:06:16;31.45;;;15.70;;
38089;SDS011;23904;52.322;10.232;2022-10-31T11:08:47;47.92;;;19.02;;
38089;SDS011;23904;52.322;10.232;2022-10-31T11:13:46;34.92;;;18.20;;
38089;SDS011;23904;52.322;10.232;2022-10-31T11:16:27;36.13;;;19.05;;
38089;SDS011;23904;52.322;10.232;2022-10-31T11:19:32;32.42;;;18.15;;
38089;SDS011;23904;52.322;10.232;2022-10-31T11:21:51;37.85;;;18.17;;
38089;SDS011;23904;52.322;10.232;2022-10-31T11:24:19;32.90;;;19.42;;
38089;SDS011;23904;52.322;10.232;2022-10-31T11:27:02;39.58;;;17.30;;
38089;SDS011;23904;52.322;10.232;2022-10-31T11:29:40;41.63;;;19.35;;
38089;SDS011;23904;52.322;10.232;2022-10-31T11:32:08;36.38;;;18.33;;
38089;SDS011;23904;52.322;10.232;2022-10-31T11:34:59;43.40;;;22.40;;
38089;SDS011;23904;52.322;10.232;2022-10-31T11:37:34;34.67;;;19.20;;
38089;SDS011;23904;52.322;10.232;2022-10-31T11:40:14;37.75;;;18.80;;
38089;SDS011;23904;52.322;10.232;2022-10-31T11:42:43;32.35;;;17.55;;
38089;SDS011;23904;52.322;10.232;2022-10-31T11:45:17;32.13;;;18.85;;
38089;SDS011;23904;52.322;10.232;2022-10-31T11:47:56;31.13;;;17.08;;
38089;SDS011;23904;52.322;10.232;2022-10-31T11:53:03;26.45;;;15.07;;
38089;SDS011;23904;52.322;10.232;2022-10-31T11:55:38;26.15;;;14.02;;
38089;SDS011;23904;52.322;10.232;2022-10-31T11:58:17;24.65;;;14.27;;
38089;SDS011;23904;52.322;10.232;2022-10-31T12:00:50;27.23;;;13.85;;
38089;SDS011;23904;52.322;10.232;2022-10-31T12:05:52;24.80;;;12.52;;
38089;SDS011;23904;52.322;10.232;2022-10-31T12:08:42;24.40;;;14.05;;
38089;SDS011;23904;52.322;10.232;2022-10-31T12:16:36;30.55;;;13.25;;
38089;SDS011;23904;52.322;10.232;2022-10-31T12:37:12;21.88;;;10.50;;
38089;SDS011;23904;52.322;10.232;2022-10-31T12:46:00;22.70;;;11.00;;
38089;SDS011;23904;52.322;10.232;2022-10-31T12:51:05;22.98;;;11.98;;
38089;SDS011;23904;52.322;10.232;2022-10-31T12:56:35;24.73;;;13.77;;
38089;SDS011;23904;52.322;10.232;2022-10-31T12:59:21;25.95;;;13.52;;
38089;SDS011;23904;52.322;10.232;2022-10-31T13:07:15;25.13;;;13.73;;
38089;SDS011;23904;52.322;10.232;2022-10-31T13:10:15;33.60;;;15.68;;
38089;SDS011;23904;52.322;10.232;2022-10-31T13:13:07;32.05;;;14.90;;
38089;SDS011;23904;52.322;10.232;2022-10-31T13:15:47;31.95;;;17.00;;
38089;SDS011;23904;52.322;10.232;2022-10-31T13:18:23;30.83;;;17.85;;
38089;SDS011;23904;52.322;10.232;2022-10-31T13:21:16;30.77;;;15.88;;
38089;SDS011;23904;52.322;10.232;2022-10-31T13:23:48;37.45;;;19.25;;
38089;SDS011;23904;52.322;10.232;2022-10-31T13:26:25;31.85;;;17.75;;
38089;SDS011;23904;52.322;10.232;2022-10-31T13:29:24;36.83;;;19.52;;
38089;SDS011;23904;52.322;10.232;2022-10-31T13:31:59;34.08;;;18.48;;
38089;SDS011;23904;52.322;10.232;2022-10-31T13:34:31;32.97;;;17.83;;
38089;SDS011;23904;52.322;10.232;2022-10-31T13:37:16;33.38;;;17.42;;
38089;SDS011;23904;52.322;10.232;2022-10-31T13:40:09;35.47;;;18.55;;
38089;SDS011;23904;52.322;10.232;2022-10-31T13:42:59;37.28;;;20.75;;
38089;SDS011;23904;52.322;10.232;2022-10-31T13:45:53;32.90;;;21.05;;
38089;SDS011;23904;52.322;10.232;2022-10-31T13:50:55;40.83;;;22.25;;
38089;SDS011;23904;52.322;10.232;2022-10-31T13:53:38;40.80;;;22.92;;
38089;SDS011;23904;52.322;10.232;2022-10-31T13:59:04;48.53;;;25.40;;
38089;SDS011;23904;52.322;10.232;2022-10-31T14:01:33;41.20;;;22.42;;
38089;SDS011;23904;52.322;10.232;2022-10-31T14:04:06;37.88;;;20.13;;
38089;SDS011;23904;52.322;10.232;2022-10-31T14:06:44;33.43;;;20.50;;
38089;SDS011;23904;52.322;10.232;2022-10-31T14:12:46;43.87;;;21.53;;
38089;SDS011;23904;52.322;10.232;2022-10-31T14:15:25;39.15;;;22.25;;
38089;SDS011;23904;52.322;10.232;2022-10-31T14:17:56;37.67;;;20.33;;
38089;SDS011;23904;52.322;10.232;2022-10-31T14:28:48;40.55;;;21.42;;
38089;SDS011;23904;52.322;10.232;2022-10-31T14:36:49;36.05;;;19.55;;
38089;SDS011;23904;52.322;10.232;2022-10-31T14:45:45;38.33;;;19.63;;
38089;SDS011;23904;52.322;10.232;2022-10-31T14:48:28;35.78;;;21.00;;
38089;SDS011;23904;52.322;10.232;2022-10-31T14:51:39;31.60;;;20.55;;
38089;SDS011;23904;52.322;10.232;2022-10-31T14:54:11;38.70;;;21.67;;
38089;SDS011;23904;52.322;10.232;2022-10-31T14:56:43;39.65;;;21.65;;
38089;SDS011;23904;52.322;10.232;2022-10-31T14:59:16;41.92;;;21.92;;
38089;SDS011;23904;52.322;10.232;2022-10-31T15:01:52;40.45;;;22.15;;
38089;SDS011;23904;52.322;10.232;2022-10-31T15:04:23;44.38;;;23.23;;
38089;SDS011;23904;52.322;10.232;2022-10-31T15:06:54;40.33;;;22.10;;
38089;SDS011;23904;52.322;10.232;2022-10-31T15:09:33;46.25;;;23.17;;
38089;SDS011;23904;52.322;10.232;2022-10-31T15:12:01;38.22;;;21.38;;
38089;SDS011;23904;52.322;10.232;2022-10-31T15:14:47;38.75;;;21.38;;
38089;SDS011;23904;52.322;10.232;2022-10-31T15:17:13;43.05;;;23.02;;
38089;SDS011;23904;52.322;10.232;2022-10-31T15:19:39;34.83;;;21.50;;
38089;SDS011;23904;52.322;10.232;2022-10-31T15:22:05;38.30;;;20.13;;
38089;SDS011;23904;52.322;10.232;2022-10-31T15:24:36;41.53;;;22.73;;
38089;SDS011;23904;52.322;10.232;2022-10-31T15:27:06;37.83;;;21.55;;
38089;SDS011;23904;52.322;10.232;2022-10-31T15:29:49;35.20;;;20.83;;
38089;SDS011;23904;52.322;10.232;2022-10-31T15:32:21;36.72;;;21.63;;
38089;SDS011;23904;52.322;10.232;2022-10-31T15:34:52;36.67;;;21.83;;
38089;SDS011;23904;52.322;10.232;2022-10-31T15:37:21;39.53;;;22.13;;
38089;SDS011;23904;52.322;10.232;2022-10-31T15:39:50;34.95;;;21.05;;
38089;SDS011;23904;52.322;10.232;2022-10-31T15:42:39;41.03;;;23.05;;
38089;SDS011;23904;52.322;10.232;2022-10-31T15:47:37;37.90;;;22.13;;
38089;SDS011;23904;52.322;10.232;2022-10-31T15:50:04;39.10;;;22.52;;
38089;SDS011;23904;52.322;10.232;2022-10-31T15:52:44;37.33;;;22.10;;
38089;SDS011;23904;52.322;10.232;2022-10-31T15:55:18;41.38;;;22.10;;
38089;SDS011;23904;52.322;10.232;2022-10-31T15:57:48;40.50;;;22.02;;
38089;SDS011;23904;52.322;10.232;2022-10-31T16:05:46;39.47;;;22.13;;
38089;SDS011;23904;52.322;10.232;2022-10-31T16:11:00;34.38;;;20.55;;
38089;SDS011;23904;52.322;10.232;2022-10-31T16:13:56;39.80;;;22.05;;
38089;SDS011;23904;52.322;10.232;2022-10-31T16:16:40;38.42;;;21.33;;
38089;SDS011;23904;52.322;10.232;2022-10-31T16:21:52;37.38;;;21.17;;
38089;SDS011;23904;52.322;10.232;2022-10-31T16:24:28;48.42;;;23.58;;
38089;SDS011;23904;52.322;10.232;2022-10-31T16:27:13;40.35;;;21.23;;
38089;SDS011;23904;52.322;10.232;2022-10-31T16:29:50;45.45;;;22.10;;
38089;SDS011;23904;52.322;10.232;2022-10-31T16:35:26;37.78;;;22.05;;
38089;SDS011;23904;52.322;10.232;2022-10-31T16:37:57;44.75;;;22.35;;
38089;SDS011;23904;52.322;10.232;2022-10-31T16:40:23;38.83;;;19.80;;
38089;SDS011;23904;52.322;10.232;2022-10-31T16:42:50;33.72;;;20.67;;
38089;SDS011;23904;52.322;10.232;2022-10-31T16:45:17;38.30;;;22.27;;
38089;SDS011;23904;52.322;10.232;2022-10-31T16:47:46;33.97;;;20.98;;
38089;SDS011;23904;52.322;10.232;2022-10-31T16:50:14;38.25;;;20.85;;
38089;SDS011;23904;52.322;10.232;2022-10-31T16:52:45;40.05;;;23.00;;
38089;SDS011;23904;52.322;10.232;2022-10-31T16:55:12;35.15;;;20.25;;
38089;SDS011;23904;52.322;10.232;2022-10-31T16:57:40;38.85;;;22.25;;
38089;SDS011;23904;52.322;10.232;2022-10-31T17:00:13;41.30;;;21.67;;
38089;SDS011;23904;52.322;10.232;2022-10-31T17:02:57;41.13;;;22.33;;
38089;SDS011;23904;52.322;10.232;2022-10-31T17:05:23;48.25;;;22.85;;
38089;SDS011;23904;52.322;10.232;2022-10-31T17:07:55;43.25;;;21.60;;
38089;SDS011;23904;52.322;10.232;2022-10-31T17:10:21;37.25;;;21.95;;
38089;SDS011;23904;52.322;10.232;2022-10-31T17:12:48;41.45;;;22.58;;
38089;SDS011;23904;52.322;10.232;2022-10-31T17:15:24;45.85;;;22.80;;
38089;SDS011;23904;52.322;10.232;2022-10-31T17:17:51;38.47;;;21.40;;
38089;SDS011;23904;52.322;10.232;2022-10-31T17:22:52;45.20;;;22.95;;
38089;SDS011;23904;52.322;10.232;2022-10-31T17:25:20;47.58;;;23.58;;
38089;SDS011;23904;52.322;10.232;2022-10-31T17:27:49;44.72;;;23.70;;
38089;SDS011;23904;52.322;10.232;2022-10-31T17:30:16;43.97;;;25.35;;